EDT,Max TemperatureF,Mean TemperatureF,Min TemperatureF,Max Dew PointF,MeanDew PointF,Min DewpointF,Max Humidity, Mean Humidity, Min Humidity, Max Sea Level PressureIn, Mean Sea Level PressureIn, Min Sea Level PressureIn, Max VisibilityMiles, Mean VisibilityMiles, Min VisibilityMiles, Max Wind SpeedMPH, Mean Wind SpeedMPH, Max Gust SpeedMPH,PrecipitationIn, CloudCover, Events, WindDirDegrees
2012-3-1,65,55,45,38,30,26,51,39,27,29.92,29.85,29.75,10,10,10,15,5,24,0.00,0,,243
2012-3-2,70,58,46,58,46,27,93,66,38,29.85,29.67,29.39,10,6,0,25,7,40,0.83,6,Fog-Rain-Thunderstorm,153
2012-3-3,53,44,34,36,27,18,82,53,24,29.88,29.81,29.70,10,9,0,21,7,30,0.00,2,,275
2012-3-4,42,35,27,30,24,18,75,60,44,29.95,29.90,29.84,10,7,1,18,5,31,0.04,7,Snow,265
2012-3-5,34,30,26,32,27,20,100,82,63,30.50,30.16,29.78,10,4,0,14,6,24,0.33,7,Fog-Snow,296
2012-3-6,68,47,26,30,21,15,81,48,14,30.51,30.43,30.33,10,10,10,12,4,22,0.00,0,,162
2012-3-7,70,58,45,39,32,21,39,36,32,30.44,30.35,30.26,10,10,10,17,7,31,0.00,0,,195
2012-3-8,63,52,41,54,48,39,93,73,52,30.25,30.15,30.06,10,7,2,16,7,28,0.98,6,Rain,243
2012-3-9,54,44,33,37,28,19,96,63,30,30.46,30.37,30.25,10,10,9,16,6,23,0.00,0,,341
2012-3-10,57,43,29,22,19,18,63,44,24,30.54,30.47,30.39,10,8,0,8,4,13,0.00,0,,63
2012-3-11,72,56,40,27,23,18,49,32,15,30.45,30.36,30.27,10,10,10,9,3,13,0.00,0,,181
2012-3-12,67,62,56,54,45,23,78,52,25,30.27,30.17,30.11,10,10,7,13,4,23,0.01,7,Rain,193
2012-3-13,80,69,58,57,53,47,87,62,36,30.18,30.13,30.08,10,10,10,13,4,20,0.00,4,,251
2012-3-14,82,69,56,52,46,41,72,49,26,30.23,30.17,30.13,10,10,10,10,2,18,0.00,1,,211
2012-3-15,75,66,56,61,55,43,93,68,42,30.31,30.22,30.14,10,7,0,14,4,26,0.75,5,Fog-Rain-Thunderstorm,232
2012-3-16,72,64,56,57,55,53,93,75,57,30.22,30.17,30.14,10,10,10,9,2,16,0.02,6,Rain,218
2012-3-17,78,69,59,57,54,52,84,64,43,30.22,30.17,30.11,10,10,10,10,3,15,T,4,Rain,183
2012-3-18,80,69,58,58,56,53,100,72,43,30.25,30.20,30.10,10,7,1,16,3,26,0.69,6,Rain-Thunderstorm,227
2012-3-19,83,72,61,55,52,46,78,56,33,30.21,30.12,30.06,10,10,10,12,1,16,0.00,2,,211
2012-3-20,86,75,63,53,48,43,63,44,25,30.17,30.10,30.04,10,10,10,9,1,14,0.00,0,,65
2012-3-21,84,74,64,54,51,45,60,47,34,30.20,30.13,30.06,10,10,10,7,2,12,0.00,1,Thunderstorm,183
2012-3-22,84,74,64,55,51,47,61,46,31,30.18,30.12,30.05,10,10,10,8,2,12,0.00,2,,219
2012-3-23,74,68,61,62,57,53,93,75,57,30.08,29.97,29.83,10,9,2,12,2,22,0.09,5,Rain,169
2012-3-24,70,62,53,57,52,42,100,71,42,29.91,29.87,29.79,10,5,0,21,2,36,0.30,7,Fog-Rain-Thunderstorm,233
2012-3-25,69,60,50,51,48,44,96,74,52,29.99,29.89,29.83,10,10,2,14,6,22,T,6,,307
2012-3-26,64,54,44,54,47,26,96,67,38,30.23,30.11,29.99,10,9,6,10,3,17,0.00,4,,355
2012-3-27,72,53,34,30,24,17,59,37,14,30.28,30.20,30.06,10,10,10,8,2,14,0.00,0,,109
2012-3-28,82,71,60,55,48,34,68,52,36,30.06,29.97,29.87,10,10,10,17,7,32,0.00,2,,235
2012-3-29,75,65,54,53,40,33,67,46,25,30.04,29.97,29.93,10,10,10,13,4,18,0.00,1,,325
2012-3-30,82,66,49,55,46,36,67,51,35,29.97,29.87,29.78,10,10,10,13,4,28,0.01,2,Rain-Thunderstorm,62
2012-3-31,72,60,47,55,51,43,86,62,37,29.92,29.85,29.76,10,10,8,13,4,21,T,4,Rain,304